sensor_id;sensor_type;location;lat;lon;timestamp;pressure;altitude;pressure_sealevel;temperature;humidity
55990;BME280;41875;55.806;38.082;2023-05-21T00:00:00;100038.53;;;12.38;74.27
55990;BME280;41875;55.806;38.082;2023-05-21T00:02:38;100027.00;;;12.56;73.54
55990;BME280;41875;55.806;38.082;2023-05-21T00:05:07;100033.34;;;12.63;73.85
55990;BME280;41875;55.806;38.082;2023-05-21T00:07:42;100027.19;;;12.54;73.82
55990;BME280;41875;55.806;38.082;2023-05-21T00:10:12;100026.50;;;12.52;73.85
55990;BME280;41875;55.806;38.082;2023-05-21T00:12:40;100028.16;;;12.53;73.62
55990;BME280;41875;55.806;38.082;2023-05-21T00:15:09;100027.50;;;12.51;73.80
55990;BME280;41875;55.806;38.082;2023-05-21T00:17:38;100023.97;;;12.42;74.23
55990;BME280;41875;55.806;38.082;2023-05-21T00:20:06;100022.75;;;12.79;73.65
55990;BME280;41875;55.806;38.082;2023-05-21T00:22:36;100029.19;;;12.60;73.60
55990;BME280;41875;55.806;38.082;2023-05-21T00:25:06;100032.28;;;12.47;74.15
55990;BME280;41875;55.806;38.082;2023-05-21T00:27:35;100027.19;;;12.62;73.53
55990;BME280;41875;55.806;38.082;2023-05-21T00:30:04;100029.28;;;12.50;73.95
55990;BME280;41875;55.806;38.082;2023-05-21T00:32:33;100029.50;;;12.57;73.72
55990;BME280;41875;55.806;38.082;2023-05-21T00:35:03;100024.72;;;12.69;73.26
55990;BME280;41875;55.806;38.082;2023-05-21T00:37:32;100023.44;;;12.81;72.93
55990;BME280;41875;55.806;38.082;2023-05-21T00:40:01;100022.06;;;12.69;73.49
55990;BME280;41875;55.806;38.082;2023-05-21T00:42:32;100025.53;;;13.13;72.51
55990;BME280;41875;55.806;38.082;2023-05-21T00:45:06;100019.75;;;13.25;71.25
55990;BME280;41875;55.806;38.082;2023-05-21T00:47:35;100025.28;;;13.49;70.16
55990;BME280;41875;55.806;38.082;2023-05-21T00:50:06;100030.91;;;13.54;69.71
55990;BME280;41875;55.806;38.082;2023-05-21T00:52:35;100026.28;;;13.48;70.03
55990;BME280;41875;55.806;38.082;2023-05-21T00:55:09;100022.22;;;13.27;70.46
55990;BME280;41875;55.806;38.082;2023-05-21T00:57:39;100026.72;;;13.35;70.54
55990;BME280;41875;55.806;38.082;2023-05-21T01:00:10;100032.69;;;13.20;70.69
55990;BME280;41875;55.806;38.082;2023-05-21T01:02:38;100032.00;;;13.10;71.23
55990;BME280;41875;55.806;38.082;2023-05-21T01:05:09;100023.28;;;13.43;69.88
55990;BME280;41875;55.806;38.082;2023-05-21T01:07:38;100033.41;;;13.47;69.56
55990;BME280;41875;55.806;38.082;2023-05-21T01:10:09;100030.56;;;13.32;70.76
55990;BME280;41875;55.806;38.082;2023-05-21T01:12:42;100033.09;;;13.59;69.80
55990;BME280;41875;55.806;38.082;2023-05-21T01:15:11;100047.91;;;13.61;69.25
55990;BME280;41875;55.806;38.082;2023-05-21T01:17:40;100042.59;;;13.53;69.49
55990;BME280;41875;55.806;38.082;2023-05-21T01:20:13;100039.59;;;13.48;69.78
55990;BME280;41875;55.806;38.082;2023-05-21T01:22:51;100028.56;;;13.34;70.33
55990;BME280;41875;55.806;38.082;2023-05-21T01:25:20;100036.03;;;13.22;70.97
55990;BME280;41875;55.806;38.082;2023-05-21T01:27:49;100041.03;;;13.25;70.70
55990;BME280;41875;55.806;38.082;2023-05-21T01:30:18;100043.13;;;13.05;71.47
55990;BME280;41875;55.806;38.082;2023-05-21T01:32:54;100039.63;;;13.05;72.29
55990;BME280;41875;55.806;38.082;2023-05-21T01:35:26;100044.50;;;13.26;71.09
55990;BME280;41875;55.806;38.082;2023-05-21T01:38:04;100032.59;;;13.47;70.17
55990;BME280;41875;55.806;38.082;2023-05-21T01:40:42;100044.34;;;13.27;71.63
55990;BME280;41875;55.806;38.082;2023-05-21T01:43:13;100027.25;;;13.38;70.83
55990;BME280;41875;55.806;38.082;2023-05-21T01:45:42;100035.38;;;13.37;70.57
55990;BME280;41875;55.806;38.082;2023-05-21T01:48:12;100039.84;;;13.28;71.21
55990;BME280;41875;55.806;38.082;2023-05-21T01:50:44;100035.44;;;13.53;70.53
55990;BME280;41875;55.806;38.082;2023-05-21T01:53:14;100031.28;;;13.59;69.94
55990;BME280;41875;55.806;38.082;2023-05-21T01:55:43;100029.44;;;13.68;69.82
55990;BME280;41875;55.806;38.082;2023-05-21T01:58:13;100029.75;;;13.48;70.31
55990;BME280;41875;55.806;38.082;2023-05-21T02:00:43;100028.28;;;13.79;69.14
55990;BME280;41875;55.806;38.082;2023-05-21T02:03:13;100028.63;;;13.84;69.20
55990;BME280;41875;55.806;38.082;2023-05-21T02:05:42;100032.44;;;13.90;68.85
55990;BME280;41875;55.806;38.082;2023-05-21T02:08:11;100023.44;;;13.41;70.07
55990;BME280;41875;55.806;38.082;2023-05-21T02:10:42;100033.28;;;13.65;70.22
55990;BME280;41875;55.806;38.082;2023-05-21T02:13:11;100031.66;;;13.05;71.95
55990;BME280;41875;55.806;38.082;2023-05-21T02:15:40;100035.75;;;13.50;70.72
55990;BME280;41875;55.806;38.082;2023-05-21T02:18:09;100021.59;;;13.41;70.81
55990;BME280;41875;55.806;38.082;2023-05-21T02:20:57;100035.44;;;13.86;69.64
55990;BME280;41875;55.806;38.082;2023-05-21T02:23:26;100032.50;;;14.29;67.77
55990;BME280;41875;55.806;38.082;2023-05-21T02:25:56;100036.75;;;13.91;68.83
55990;BME280;41875;55.806;38.082;2023-05-21T02:28:24;100029.25;;;13.86;68.66
55990;BME280;41875;55.806;38.082;2023-05-21T02:30:53;100032.06;;;13.93;68.69
55990;BME280;41875;55.806;38.082;2023-05-21T02:33:22;100033.59;;;13.79;69.11
55990;BME280;41875;55.806;38.082;2023-05-21T02:35:50;100038.75;;;14.05;68.53
55990;BME280;41875;55.806;38.082;2023-05-21T02:38:18;100038.22;;;14.10;68.34
55990;BME280;41875;55.806;38.082;2023-05-21T02:40:49;100037.22;;;14.02;68.25
55990;BME280;41875;55.806;38.082;2023-05-21T02:43:19;100042.97;;;14.39;68.25
55990;BME280;41875;55.806;38.082;2023-05-21T02:45:47;100055.22;;;14.09;67.86
55990;BME280;41875;55.806;38.082;2023-05-21T02:48:17;100043.75;;;13.50;69.95
55990;BME280;41875;55.806;38.082;2023-05-21T02:50:46;100050.56;;;13.53;69.56
55990;BME280;41875;55.806;38.082;2023-05-21T02:53:14;100048.06;;;13.51;69.95
55990;BME280;41875;55.806;38.082;2023-05-21T02:55:43;100056.31;;;13.15;71.23
55990;BME280;41875;55.806;38.082;2023-05-21T02:58:14;100056.81;;;13.27;71.33
55990;BME280;41875;55.806;38.082;2023-05-21T03:00:44;100052.47;;;13.26;71.15
55990;BME280;41875;55.806;38.082;2023-05-21T03:03:13;100052.03;;;13.47;70.14
55990;BME280;41875;55.806;38.082;2023-05-21T03:05:42;100047.19;;;14.17;69.19
55990;BME280;41875;55.806;38.082;2023-05-21T03:08:11;100042.75;;;14.01;68.02
55990;BME280;41875;55.806;38.082;2023-05-21T03:10:40;100043.91;;;13.90;68.38
55990;BME280;41875;55.806;38.082;2023-05-21T03:13:08;100034.09;;;13.66;69.24
55990;BME280;41875;55.806;38.082;2023-05-21T03:15:37;100045.13;;;14.52;67.69
55990;BME280;41875;55.806;38.082;2023-05-21T03:18:09;100046.75;;;13.89;67.57
55990;BME280;41875;55.806;38.082;2023-05-21T03:20:39;100043.41;;;13.86;67.90
55990;BME280;41875;55.806;38.082;2023-05-21T03:23:09;100040.09;;;13.84;67.76
55990;BME280;41875;55.806;38.082;2023-05-21T03:25:42;100053.56;;;13.75;67.57
55990;BME280;41875;55.806;38.082;2023-05-21T03:28:13;100042.91;;;13.91;67.12
55990;BME280;41875;55.806;38.082;2023-05-21T03:30:47;100052.25;;;13.79;67.70
55990;BME280;41875;55.806;38.082;2023-05-21T03:33:50;100052.03;;;14.13;66.25
55990;BME280;41875;55.806;38.082;2023-05-21T03:36:26;100054.53;;;14.23;66.11
55990;BME280;41875;55.806;38.082;2023-05-21T03:38:55;100050.03;;;14.07;66.35
55990;BME280;41875;55.806;38.082;2023-05-21T03:41:24;100056.69;;;14.36;64.71
55990;BME280;41875;55.806;38.082;2023-05-21T03:44:04;100050.50;;;14.36;65.15
55990;BME280;41875;55.806;38.082;2023-05-21T03:46:44;100055.41;;;14.72;63.98
55990;BME280;41875;55.806;38.082;2023-05-21T03:49:21;100054.78;;;14.53;64.66
55990;BME280;41875;55.806;38.082;2023-05-21T03:51:52;100047.91;;;13.86;65.73
55990;BME280;41875;55.806;38.082;2023-05-21T03:54:22;100059.69;;;14.08;66.51
55990;BME280;41875;55.806;38.082;2023-05-21T03:56:54;100061.03;;;14.12;65.34
55990;BME280;41875;55.806;38.082;2023-05-21T03:59:23;100062.56;;;13.98;66.04
55990;BME280;41875;55.806;38.082;2023-05-21T04:01:55;100058.47;;;14.44;64.70
55990;BME280;41875;55.806;38.082;2023-05-21T04:04:24;100059.38;;;14.84;63.51
55990;BME280;41875;55.806;38.082;2023-05-21T04:06:57;100055.72;;;14.21;64.66
55990;BME280;41875;55.806;38.082;2023-05-21T04:09:27;100057.16;;;14.40;64.41
55990;BME280;41875;55.806;38.082;2023-05-21T04:11:56;100059.72;;;14.00;65.63
55990;BME280;41875;55.806;38.082;2023-05-21T04:14:24;100063.03;;;14.10;64.82
55990;BME280;41875;55.806;38.082;2023-05-21T04:16:53;100063.63;;;14.37;63.91
55990;BME280;41875;55.806;38.082;2023-05-21T04:19:22;100059.72;;;14.81;62.94
55990;BME280;41875;55.806;38.082;2023-05-21T04:21:52;100061.16;;;15.23;61.69
55990;BME280;41875;55.806;38.082;2023-05-21T04:24:23;100053.63;;;15.50;60.58
55990;BME280;41875;55.806;38.082;2023-05-21T04:26:59;100059.28;;;15.55;59.74
55990;BME280;41875;55.806;38.082;2023-05-21T04:29:30;100054.41;;;15.59;59.99
55990;BME280;41875;55.806;38.082;2023-05-21T04:32:00;100058.84;;;15.67;59.46
55990;BME280;41875;55.806;38.082;2023-05-21T04:34:28;100058.34;;;15.72;58.96
55990;BME280;41875;55.806;38.082;2023-05-21T04:37:02;100065.47;;;15.56;59.24
55990;BME280;41875;55.806;38.082;2023-05-21T04:39:30;100060.81;;;15.27;60.06
55990;BME280;41875;55.806;38.082;2023-05-21T04:42:00;100057.66;;;15.23;57.51
55990;BME280;41875;55.806;38.082;2023-05-21T04:44:30;100054.00;;;15.24;57.98
55990;BME280;41875;55.806;38.082;2023-05-21T04:46:59;100053.81;;;15.72;56.90
55990;BME280;41875;55.806;38.082;2023-05-21T04:49:28;100055.22;;;16.06;55.46
55990;BME280;41875;55.806;38.082;2023-05-21T04:51:58;100052.50;;;15.68;56.07
55990;BME280;41875;55.806;38.082;2023-05-21T04:54:28;100053.25;;;16.00;55.78
55990;BME280;41875;55.806;38.082;2023-05-21T04:56:57;100048.81;;;15.69;56.47
55990;BME280;41875;55.806;38.082;2023-05-21T04:59:28;100053.63;;;15.97;55.65
55990;BME280;41875;55.806;38.082;2023-05-21T05:01:56;100062.22;;;16.07;56.61
55990;BME280;41875;55.806;38.082;2023-05-21T05:04:25;100066.03;;;15.66;55.93
55990;BME280;41875;55.806;38.082;2023-05-21T05:06:54;100072.66;;;16.32;53.77
55990;BME280;41875;55.806;38.082;2023-05-21T05:09:23;100070.41;;;15.82;54.39
55990;BME280;41875;55.806;38.082;2023-05-21T05:11:53;100066.16;;;14.95;57.84
55990;BME280;41875;55.806;38.082;2023-05-21T05:14:21;100071.84;;;14.84;56.66
55990;BME280;41875;55.806;38.082;2023-05-21T05:16:50;100073.69;;;13.94;60.50
55990;BME280;41875;55.806;38.082;2023-05-21T05:19:20;100069.13;;;14.52;58.33
55990;BME280;41875;55.806;38.082;2023-05-21T05:21:49;100085.31;;;14.34;58.67
55990;BME280;41875;55.806;38.082;2023-05-21T05:24:20;100066.91;;;15.12;56.74
55990;BME280;41875;55.806;38.082;2023-05-21T05:26:49;100065.66;;;15.23;55.72
55990;BME280;41875;55.806;38.082;2023-05-21T05:29:19;100065.41;;;15.09;56.02
55990;BME280;41875;55.806;38.082;2023-05-21T05:31:47;100073.88;;;15.45;55.95
55990;BME280;41875;55.806;38.082;2023-05-21T05:34:16;100068.00;;;15.49;55.02
55990;BME280;41875;55.806;38.082;2023-05-21T05:36:47;100075.38;;;15.94;54.61
55990;BME280;41875;55.806;38.082;2023-05-21T05:39:16;100072.75;;;15.85;54.85
55990;BME280;41875;55.806;38.082;2023-05-21T05:41:49;100066.50;;;16.32;53.30
55990;BME280;41875;55.806;38.082;2023-05-21T05:44:24;100085.94;;;16.25;53.53
55990;BME280;41875;55.806;38.082;2023-05-21T05:46:53;100073.50;;;16.33;53.41
55990;BME280;41875;55.806;38.082;2023-05-21T05:49:21;100072.94;;;16.52;52.37
55990;BME280;41875;55.806;38.082;2023-05-21T05:51:50;100070.28;;;16.67;51.96
55990;BME280;41875;55.806;38.082;2023-05-21T05:54:19;100083.09;;;17.82;49.79
55990;BME280;41875;55.806;38.082;2023-05-21T05:56:50;100088.22;;;17.55;49.71
55990;BME280;41875;55.806;38.082;2023-05-21T05:59:19;100079.69;;;16.78;51.86
55990;BME280;41875;55.806;38.082;2023-05-21T06:01:51;100071.16;;;15.53;55.04
55990;BME280;41875;55.806;38.082;2023-05-21T06:04:20;100081.41;;;15.64;55.21
55990;BME280;41875;55.806;38.082;2023-05-21T06:06:48;100085.03;;;15.72;55.40
55990;BME280;41875;55.806;38.082;2023-05-21T06:09:18;100087.44;;;15.90;55.46
55990;BME280;41875;55.806;38.082;2023-05-21T06:11:48;100080.88;;;15.69;56.32
55990;BME280;41875;55.806;38.082;2023-05-21T06:14:16;100091.13;;;16.57;56.76
55990;BME280;41875;55.806;38.082;2023-05-21T06:16:45;100087.25;;;16.29;54.43
55990;BME280;41875;55.806;38.082;2023-05-21T06:19:15;100088.72;;;16.32;54.69
55990;BME280;41875;55.806;38.082;2023-05-21T06:21:44;100080.16;;;16.82;51.90
55990;BME280;41875;55.806;38.082;2023-05-21T06:24:12;100077.06;;;15.40;55.78
55990;BME280;41875;55.806;38.082;2023-05-21T06:26:41;100075.91;;;16.27;53.01
55990;BME280;41875;55.806;38.082;2023-05-21T06:29:10;100075.34;;;17.44;49.85
55990;BME280;41875;55.806;38.082;2023-05-21T06:31:41;100080.47;;;17.89;47.95
55990;BME280;41875;55.806;38.082;2023-05-21T06:34:10;100081.56;;;16.63;50.30
55990;BME280;41875;55.806;38.082;2023-05-21T06:36:40;100079.91;;;17.50;48.82
55990;BME280;41875;55.806;38.082;2023-05-21T06:39:09;100079.09;;;17.71;47.50
55990;BME280;41875;55.806;38.082;2023-05-21T06:41:37;100085.63;;;17.25;49.01
55990;BME280;41875;55.806;38.082;2023-05-21T06:44:23;100087.25;;;17.85;46.92
55990;BME280;41875;55.806;38.082;2023-05-21T06:47:12;100089.06;;;17.99;47.24
55990;BME280;41875;55.806;38.082;2023-05-21T06:49:40;100098.25;;;18.47;45.94
55990;BME280;41875;55.806;38.082;2023-05-21T06:52:14;100093.59;;;17.18;47.44
55990;BME280;41875;55.806;38.082;2023-05-21T06:54:43;100099.22;;;17.24;47.14
55990;BME280;41875;55.806;38.082;2023-05-21T06:57:12;100096.97;;;18.07;48.40
55990;BME280;41875;55.806;38.082;2023-05-21T06:59:42;100095.56;;;18.11;45.66
55990;BME280;41875;55.806;38.082;2023-05-21T07:02:13;100095.75;;;17.45;48.24
55990;BME280;41875;55.806;38.082;2023-05-21T07:04:44;100085.19;;;17.87;45.80
55990;BME280;41875;55.806;38.082;2023-05-21T07:07:14;100070.69;;;18.95;44.35
55990;BME280;41875;55.806;38.082;2023-05-21T07:09:43;100092.91;;;18.88;43.49
55990;BME280;41875;55.806;38.082;2023-05-21T07:12:12;100088.38;;;18.47;43.81
55990;BME280;41875;55.806;38.082;2023-05-21T07:14:40;100079.03;;;18.78;42.63
55990;BME280;41875;55.806;38.082;2023-05-21T07:17:09;100080.81;;;18.99;43.57
55990;BME280;41875;55.806;38.082;2023-05-21T07:19:37;100074.66;;;18.64;42.62
55990;BME280;41875;55.806;38.082;2023-05-21T07:22:06;100086.25;;;18.78;43.67
55990;BME280;41875;55.806;38.082;2023-05-21T07:24:36;100092.69;;;17.70;44.93
55990;BME280;41875;55.806;38.082;2023-05-21T07:27:06;100086.06;;;17.44;45.66
55990;BME280;41875;55.806;38.082;2023-05-21T07:29:53;100083.53;;;19.06;45.25
55990;BME280;41875;55.806;38.082;2023-05-21T07:32:27;100080.00;;;18.64;43.29
55990;BME280;41875;55.806;38.082;2023-05-21T07:34:58;100088.53;;;18.81;42.76
55990;BME280;41875;55.806;38.082;2023-05-21T07:37:30;100090.19;;;18.11;44.54
55990;BME280;41875;55.806;38.082;2023-05-21T07:40:00;100093.56;;;19.39;42.85
55990;BME280;41875;55.806;38.082;2023-05-21T07:42:33;100096.94;;;17.42;45.05
55990;BME280;41875;55.806;38.082;2023-05-21T07:45:03;100072.50;;;17.95;43.85
55990;BME280;41875;55.806;38.082;2023-05-21T07:47:37;100088.69;;;19.08;42.92
55990;BME280;41875;55.806;38.082;2023-05-21T07:50:06;100092.69;;;18.83;43.15
55990;BME280;41875;55.806;38.082;2023-05-21T07:52:35;100080.31;;;20.59;39.08
55990;BME280;41875;55.806;38.082;2023-05-21T07:55:07;100068.66;;;19.03;42.35
55990;BME280;41875;55.806;38.082;2023-05-21T07:57:38;100083.06;;;19.58;42.01
55990;BME280;41875;55.806;38.082;2023-05-21T08:00:11;100080.63;;;20.10;41.69
55990;BME280;41875;55.806;38.082;2023-05-21T08:02:50;100096.69;;;19.63;40.87
55990;BME280;41875;55.806;38.082;2023-05-21T08:05:20;100076.53;;;19.18;41.88
55990;BME280;41875;55.806;38.082;2023-05-21T08:07:50;100076.59;;;20.60;39.42
55990;BME280;41875;55.806;38.082;2023-05-21T08:10:21;100083.47;;;20.29;39.59
55990;BME280;41875;55.806;38.082;2023-05-21T08:12:54;100084.28;;;21.15;37.94
55990;BME280;41875;55.806;38.082;2023-05-21T08:15:23;100083.63;;;21.20;37.89
55990;BME280;41875;55.806;38.082;2023-05-21T08:18:02;100076.53;;;20.73;38.40
55990;BME280;41875;55.806;38.082;2023-05-21T08:20:32;100068.94;;;20.77;38.96
55990;BME280;41875;55.806;38.082;2023-05-21T08:23:01;100076.41;;;21.20;38.60
55990;BME280;41875;55.806;38.082;2023-05-21T08:25:39;100073.53;;;21.47;35.89
55990;BME280;41875;55.806;38.082;2023-05-21T08:28:09;100071.41;;;21.56;37.24
55990;BME280;41875;55.806;38.082;2023-05-21T08:30:39;100072.28;;;20.45;39.03
55990;BME280;41875;55.806;38.082;2023-05-21T08:33:08;100074.81;;;20.00;39.71
55990;BME280;41875;55.806;38.082;2023-05-21T08:35:37;100067.38;;;21.01;38.34
55990;BME280;41875;55.806;38.082;2023-05-21T08:38:18;100063.31;;;21.24;34.75
55990;BME280;41875;55.806;38.082;2023-05-21T08:41:07;100068.06;;;20.69;37.24
55990;BME280;41875;55.806;38.082;2023-05-21T08:43:37;100080.31;;;20.79;38.09
55990;BME280;41875;55.806;38.082;2023-05-21T08:46:07;100082.44;;;19.69;38.81
55990;BME280;41875;55.806;38.082;2023-05-21T08:48:41;100090.13;;;18.68;41.31
55990;BME280;41875;55.806;38.082;2023-05-21T08:51:11;100083.31;;;18.66;42.08
55990;BME280;41875;55.806;38.082;2023-05-21T08:53:46;100079.72;;;18.87;41.32
55990;BME280;41875;55.806;38.082;2023-05-21T08:56:19;100078.41;;;19.11;42.15
55990;BME280;41875;55.806;38.082;2023-05-21T08:58:52;100074.63;;;20.21;38.84
55990;BME280;41875;55.806;38.082;2023-05-21T09:01:27;100068.84;;;21.36;36.98
55990;BME280;41875;55.806;38.082;2023-05-21T09:04:03;100062.97;;;21.13;36.77
55990;BME280;41875;55.806;38.082;2023-05-21T09:06:52;100065.84;;;21.12;36.62
55990;BME280;41875;55.806;38.082;2023-05-21T09:09:55;100063.72;;;20.75;38.34
55990;BME280;41875;55.806;38.082;2023-05-21T09:12:27;100056.41;;;22.17;35.34
55990;BME280;41875;55.806;38.082;2023-05-21T09:14:58;100060.81;;;22.74;33.80
55990;BME280;41875;55.806;38.082;2023-05-21T09:17:34;100054.31;;;22.63;34.51
55990;BME280;41875;55.806;38.082;2023-05-21T09:20:24;100067.72;;;21.82;35.62
55990;BME280;41875;55.806;38.082;2023-05-21T09:23:01;100063.38;;;20.51;38.11
55990;BME280;41875;55.806;38.082;2023-05-21T09:25:32;100053.72;;;20.96;36.78
55990;BME280;41875;55.806;38.082;2023-05-21T09:28:12;100062.69;;;21.22;37.10
55990;BME280;41875;55.806;38.082;2023-05-21T09:30:45;100057.69;;;21.64;36.18
55990;BME280;41875;55.806;38.082;2023-05-21T09:33:23;100034.28;;;22.08;35.43
55990;BME280;41875;55.806;38.082;2023-05-21T09:35:52;100048.94;;;23.43;32.53
55990;BME280;41875;55.806;38.082;2023-05-21T09:38:24;100049.13;;;23.41;32.47
55990;BME280;41875;55.806;38.082;2023-05-21T09:40:54;100054.66;;;22.67;33.35
55990;BME280;41875;55.806;38.082;2023-05-21T09:43:26;100056.63;;;22.16;34.72
55990;BME280;41875;55.806;38.082;2023-05-21T09:46:57;100066.06;;;20.51;37.91
55990;BME280;41875;55.806;38.082;2023-05-21T09:49:27;100063.97;;;21.19;35.63
55990;BME280;41875;55.806;38.082;2023-05-21T09:51:59;100056.09;;;22.07;34.45
55990;BME280;41875;55.806;38.082;2023-05-21T09:54:31;100063.69;;;22.42;33.92
55990;BME280;41875;55.806;38.082;2023-05-21T09:57:01;100061.50;;;21.82;34.58
55990;BME280;41875;55.806;38.082;2023-05-21T09:59:35;100063.91;;;21.26;35.67
55990;BME280;41875;55.806;38.082;2023-05-21T10:02:15;100058.97;;;21.55;33.98
55990;BME280;41875;55.806;38.082;2023-05-21T10:04:48;100056.88;;;21.64;35.70
55990;BME280;41875;55.806;38.082;2023-05-21T10:07:23;100064.25;;;22.00;34.65
55990;BME280;41875;55.806;38.082;2023-05-21T10:09:57;100060.91;;;21.41;34.38
55990;BME280;41875;55.806;38.082;2023-05-21T10:12:30;100062.81;;;21.72;33.95
55990;BME280;41875;55.806;38.082;2023-05-21T10:15:03;100069.03;;;21.34;34.44
55990;BME280;41875;55.806;38.082;2023-05-21T10:17:39;100063.81;;;20.41;36.50
55990;BME280;41875;55.806;38.082;2023-05-21T10:20:11;100059.88;;;20.31;37.56
55990;BME280;41875;55.806;38.082;2023-05-21T10:22:43;100069.75;;;20.77;36.97
55990;BME280;41875;55.806;38.082;2023-05-21T10:25:13;100064.31;;;21.29;36.25
55990;BME280;41875;55.806;38.082;2023-05-21T10:27:42;100065.94;;;21.69;34.62
55990;BME280;41875;55.806;38.082;2023-05-21T10:30:17;100070.97;;;21.27;35.71
55990;BME280;41875;55.806;38.082;2023-05-21T10:33:25;100052.59;;;20.58;38.52
55990;BME280;41875;55.806;38.082;2023-05-21T10:36:01;100069.28;;;21.32;36.58
55990;BME280;41875;55.806;38.082;2023-05-21T10:38:33;100066.25;;;21.54;36.43
55990;BME280;41875;55.806;38.082;2023-05-21T10:41:09;100060.00;;;21.54;35.70
55990;BME280;41875;55.806;38.082;2023-05-21T10:43:51;100064.97;;;21.89;36.55
55990;BME280;41875;55.806;38.082;2023-05-21T10:46:53;100066.97;;;22.63;35.27
55990;BME280;41875;55.806;38.082;2023-05-21T10:49:58;100047.44;;;22.98;34.07
55990;BME280;41875;55.806;38.082;2023-05-21T10:52:54;100054.72;;;23.70;32.75
55990;BME280;41875;55.806;38.082;2023-05-21T10:55:44;100052.88;;;22.17;33.66
55990;BME280;41875;55.806;38.082;2023-05-21T10:58:32;100063.38;;;22.69;34.76
55990;BME280;41875;55.806;38.082;2023-05-21T11:01:04;100061.59;;;21.68;35.04
55990;BME280;41875;55.806;38.082;2023-05-21T11:03:36;100057.75;;;21.83;34.53
55990;BME280;41875;55.806;38.082;2023-05-21T11:06:07;100071.41;;;21.88;34.69
55990;BME280;41875;55.806;38.082;2023-05-21T11:08:46;100062.56;;;22.68;35.41
55990;BME280;41875;55.806;38.082;2023-05-21T11:11:38;100057.44;;;23.28;35.60
55990;BME280;41875;55.806;38.082;2023-05-21T11:14:32;100060.75;;;23.11;33.29
55990;BME280;41875;55.806;38.082;2023-05-21T11:17:03;100060.59;;;22.76;31.92
55990;BME280;41875;55.806;38.082;2023-05-21T11:19:37;100065.97;;;21.95;32.82
55990;BME280;41875;55.806;38.082;2023-05-21T11:22:09;100066.69;;;22.27;32.18
55990;BME280;41875;55.806;38.082;2023-05-21T11:24:39;100059.50;;;22.21;32.69
55990;BME280;41875;55.806;38.082;2023-05-21T11:27:10;100063.22;;;22.64;32.90
55990;BME280;41875;55.806;38.082;2023-05-21T11:29:41;100056.16;;;22.63;33.18
55990;BME280;41875;55.806;38.082;2023-05-21T11:32:12;100062.63;;;22.18;33.51
55990;BME280;41875;55.806;38.082;2023-05-21T11:34:44;100061.16;;;22.22;33.51
55990;BME280;41875;55.806;38.082;2023-05-21T11:37:26;100060.53;;;22.45;34.39
55990;BME280;41875;55.806;38.082;2023-05-21T11:40:01;100053.69;;;22.43;33.59
55990;BME280;41875;55.806;38.082;2023-05-21T11:42:48;100057.13;;;21.81;34.54
55990;BME280;41875;55.806;38.082;2023-05-21T11:45:17;100049.94;;;22.00;33.20
55990;BME280;41875;55.806;38.082;2023-05-21T11:47:46;100052.72;;;22.56;32.82
55990;BME280;41875;55.806;38.082;2023-05-21T11:50:16;100052.47;;;21.95;33.30
55990;BME280;41875;55.806;38.082;2023-05-21T11:52:47;100050.81;;;22.19;33.19
55990;BME280;41875;55.806;38.082;2023-05-21T11:55:20;100055.09;;;20.46;33.67
55990;BME280;41875;55.806;38.082;2023-05-21T11:57:52;100048.91;;;21.05;33.71
55990;BME280;41875;55.806;38.082;2023-05-21T12:00:22;100045.25;;;21.31;33.85
55990;BME280;41875;55.806;38.082;2023-05-21T12:02:52;100041.50;;;22.15;32.45
55990;BME280;41875;55.806;38.082;2023-05-21T12:05:23;100051.06;;;20.89;34.54
55990;BME280;41875;55.806;38.082;2023-05-21T12:07:57;100054.97;;;21.64;33.36
55990;BME280;41875;55.806;38.082;2023-05-21T12:10:26;100057.53;;;22.28;32.30
55990;BME280;41875;55.806;38.082;2023-05-21T12:12:54;100052.53;;;22.32;32.12
55990;BME280;41875;55.806;38.082;2023-05-21T12:15:25;100057.13;;;22.06;32.65
55990;BME280;41875;55.806;38.082;2023-05-21T12:17:54;100053.00;;;22.47;32.14
55990;BME280;41875;55.806;38.082;2023-05-21T12:20:27;100049.69;;;22.82;32.06
55990;BME280;41875;55.806;38.082;2023-05-21T12:22:57;100047.75;;;22.90;31.37
55990;BME280;41875;55.806;38.082;2023-05-21T12:25:27;100052.72;;;21.86;33.75
55990;BME280;41875;55.806;38.082;2023-05-21T12:27:58;100031.75;;;22.14;32.92
55990;BME280;41875;55.806;38.082;2023-05-21T12:30:27;100056.97;;;21.43;34.08
55990;BME280;41875;55.806;38.082;2023-05-21T12:32:57;100050.31;;;22.47;32.88
55990;BME280;41875;55.806;38.082;2023-05-21T12:35:29;100046.22;;;23.97;30.96
55990;BME280;41875;55.806;38.082;2023-05-21T12:38:02;100043.84;;;23.35;32.30
55990;BME280;41875;55.806;38.082;2023-05-21T12:40:34;100041.75;;;23.60;31.46
55990;BME280;41875;55.806;38.082;2023-05-21T12:43:05;100047.53;;;23.22;31.81
55990;BME280;41875;55.806;38.082;2023-05-21T12:45:34;100041.38;;;23.14;31.93
55990;BME280;41875;55.806;38.082;2023-05-21T12:48:06;100046.19;;;22.82;30.90
55990;BME280;41875;55.806;38.082;2023-05-21T12:50:38;100044.69;;;22.05;32.53
55990;BME280;41875;55.806;38.082;2023-05-21T12:53:09;100046.91;;;21.64;33.33
55990;BME280;41875;55.806;38.082;2023-05-21T12:55:38;100052.91;;;22.35;32.64
55990;BME280;41875;55.806;38.082;2023-05-21T12:58:07;100052.59;;;22.06;33.48
55990;BME280;41875;55.806;38.082;2023-05-21T13:00:36;100049.41;;;22.10;32.64
55990;BME280;41875;55.806;38.082;2023-05-21T13:03:05;100044.38;;;22.76;31.00
55990;BME280;41875;55.806;38.082;2023-05-21T13:05:33;100029.59;;;22.78;34.11